sensor_id;sensor_type;location;lat;lon;timestamp;pressure;altitude;pressure_sealevel;temperature;humidity
46638;BME280;32365;46.938;7.390;2023-03-20T00:00:55;95592.53;;;6.01;96.38
46638;BME280;32365;46.938;7.390;2023-03-20T00:03:22;95598.69;;;6.13;96.14
46638;BME280;32365;46.938;7.390;2023-03-20T00:05:49;95597.63;;;5.94;97.08
46638;BME280;32365;46.938;7.390;2023-03-20T00:08:16;95590.06;;;5.79;98.14
46638;BME280;32365;46.938;7.390;2023-03-20T00:10:45;95599.53;;;5.79;98.54
46638;BME280;32365;46.938;7.390;2023-03-20T00:13:14;95596.94;;;5.72;98.79
46638;BME280;32365;46.938;7.390;2023-03-20T00:15:44;95590.00;;;5.66;99.32
46638;BME280;32365;46.938;7.390;2023-03-20T00:18:14;95595.53;;;5.69;98.96
46638;BME280;32365;46.938;7.390;2023-03-20T00:20:43;95597.16;;;5.77;98.17
46638;BME280;32365;46.938;7.390;2023-03-20T00:23:09;95594.41;;;5.79;97.16
46638;BME280;32365;46.938;7.390;2023-03-20T00:25:36;95597.94;;;5.71;97.06
46638;BME280;32365;46.938;7.390;2023-03-20T00:28:27;95591.00;;;5.72;97.42
46638;BME280;32365;46.938;7.390;2023-03-20T00:30:54;95599.50;;;5.72;97.02
46638;BME280;32365;46.938;7.390;2023-03-20T00:33:21;95592.00;;;5.70;97.15
46638;BME280;32365;46.938;7.390;2023-03-20T00:35:48;95593.63;;;5.78;96.09
46638;BME280;32365;46.938;7.390;2023-03-20T00:38:14;95589.47;;;5.77;95.91
46638;BME280;32365;46.938;7.390;2023-03-20T00:40:41;95591.63;;;5.74;96.10
46638;BME280;32365;46.938;7.390;2023-03-20T00:43:10;95592.81;;;5.71;96.13
46638;BME280;32365;46.938;7.390;2023-03-20T00:45:41;95591.41;;;5.75;95.49
46638;BME280;32365;46.938;7.390;2023-03-20T00:48:12;95586.84;;;5.64;96.47
46638;BME280;32365;46.938;7.390;2023-03-20T00:50:39;95585.47;;;5.68;95.77
46638;BME280;32365;46.938;7.390;2023-03-20T00:53:08;95590.16;;;5.58;95.87
46638;BME280;32365;46.938;7.390;2023-03-20T00:55:35;95588.19;;;5.60;96.54
46638;BME280;32365;46.938;7.390;2023-03-20T00:58:04;95588.97;;;5.53;96.78
46638;BME280;32365;46.938;7.390;2023-03-20T01:00:37;95581.78;;;5.42;96.93
46638;BME280;32365;46.938;7.390;2023-03-20T01:03:11;95578.78;;;5.32;97.74
46638;BME280;32365;46.938;7.390;2023-03-20T01:05:38;95578.94;;;5.30;97.28
46638;BME280;32365;46.938;7.390;2023-03-20T01:08:12;95580.75;;;5.30;98.46
46638;BME280;32365;46.938;7.390;2023-03-20T01:10:40;95585.31;;;5.34;97.62
46638;BME280;32365;46.938;7.390;2023-03-20T01:13:14;95581.75;;;5.35;96.89
46638;BME280;32365;46.938;7.390;2023-03-20T01:15:43;95580.94;;;5.28;97.89
46638;BME280;32365;46.938;7.390;2023-03-20T01:18:12;95576.34;;;5.23;98.18
46638;BME280;32365;46.938;7.390;2023-03-20T01:20:39;95579.31;;;5.20;98.68
46638;BME280;32365;46.938;7.390;2023-03-20T01:23:06;95578.78;;;5.32;97.64
46638;BME280;32365;46.938;7.390;2023-03-20T01:25:33;95575.59;;;5.30;97.95
46638;BME280;32365;46.938;7.390;2023-03-20T01:27:59;95577.94;;;5.24;98.50
46638;BME280;32365;46.938;7.390;2023-03-20T01:30:28;95579.69;;;5.17;99.03
46638;BME280;32365;46.938;7.390;2023-03-20T01:32:57;95586.25;;;5.27;99.77
46638;BME280;32365;46.938;7.390;2023-03-20T01:35:25;95585.31;;;5.34;99.74
46638;BME280;32365;46.938;7.390;2023-03-20T01:37:53;95586.31;;;5.40;99.59
46638;BME280;32365;46.938;7.390;2023-03-20T01:40:31;95578.81;;;5.38;99.32
46638;BME280;32365;46.938;7.390;2023-03-20T01:42:59;95582.97;;;5.39;99.68
46638;BME280;32365;46.938;7.390;2023-03-20T01:45:31;95584.47;;;5.62;98.54
46638;BME280;32365;46.938;7.390;2023-03-20T01:48:01;95583.03;;;5.60;97.80
46638;BME280;32365;46.938;7.390;2023-03-20T01:50:37;95583.25;;;5.58;98.37
46638;BME280;32365;46.938;7.390;2023-03-20T01:53:08;95579.47;;;5.54;98.65
46638;BME280;32365;46.938;7.390;2023-03-20T01:55:37;95574.75;;;5.58;98.92
46638;BME280;32365;46.938;7.390;2023-03-20T01:58:07;95580.91;;;5.63;97.95
46638;BME280;32365;46.938;7.390;2023-03-20T02:00:35;95579.81;;;5.86;95.58
46638;BME280;32365;46.938;7.390;2023-03-20T02:03:05;95578.41;;;5.83;95.45
46638;BME280;32365;46.938;7.390;2023-03-20T02:05:34;95580.53;;;5.73;96.48
46638;BME280;32365;46.938;7.390;2023-03-20T02:08:11;95578.84;;;5.87;96.27
46638;BME280;32365;46.938;7.390;2023-03-20T02:10:43;95574.47;;;5.88;95.59
46638;BME280;32365;46.938;7.390;2023-03-20T02:13:10;95574.16;;;5.55;95.58
46638;BME280;32365;46.938;7.390;2023-03-20T02:15:53;95575.34;;;5.53;97.42
46638;BME280;32365;46.938;7.390;2023-03-20T02:18:22;95572.16;;;5.51;97.52
46638;BME280;32365;46.938;7.390;2023-03-20T02:24:07;95572.56;;;5.54;97.81
46638;BME280;32365;46.938;7.390;2023-03-20T02:26:47;95577.34;;;5.58;97.08
46638;BME280;32365;46.938;7.390;2023-03-20T02:29:39;95570.38;;;5.51;97.82
46638;BME280;32365;46.938;7.390;2023-03-20T02:32:50;95572.69;;;5.39;97.94
46638;BME280;32365;46.938;7.390;2023-03-20T02:35:42;95572.47;;;5.34;99.02
46638;BME280;32365;46.938;7.390;2023-03-20T02:38:41;95574.00;;;5.29;100.00
46638;BME280;32365;46.938;7.390;2023-03-20T02:41:13;95578.38;;;5.28;100.00
46638;BME280;32365;46.938;7.390;2023-03-20T02:43:50;95580.94;;;5.28;99.92
46638;BME280;32365;46.938;7.390;2023-03-20T02:46:28;95574.38;;;5.26;100.00
46638;BME280;32365;46.938;7.390;2023-03-20T02:49:01;95580.13;;;5.28;100.00
46638;BME280;32365;46.938;7.390;2023-03-20T02:51:34;95576.34;;;5.23;100.00
46638;BME280;32365;46.938;7.390;2023-03-20T02:54:07;95584.63;;;5.19;100.00
46638;BME280;32365;46.938;7.390;2023-03-20T02:56:44;95575.75;;;5.21;100.00
46638;BME280;32365;46.938;7.390;2023-03-20T02:59:19;95576.34;;;5.17;100.00
46638;BME280;32365;46.938;7.390;2023-03-20T03:01:52;95589.16;;;5.17;100.00
46638;BME280;32365;46.938;7.390;2023-03-20T03:04:25;95590.66;;;5.04;100.00
46638;BME280;32365;46.938;7.390;2023-03-20T03:06:54;95591.75;;;4.95;100.00
46638;BME280;32365;46.938;7.390;2023-03-20T03:09:28;95583.84;;;4.90;100.00
46638;BME280;32365;46.938;7.390;2023-03-20T03:11:59;95590.56;;;4.91;100.00
46638;BME280;32365;46.938;7.390;2023-03-20T03:14:34;95585.69;;;5.03;100.00
46638;BME280;32365;46.938;7.390;2023-03-20T03:17:04;95585.91;;;5.01;99.72
46638;BME280;32365;46.938;7.390;2023-03-20T03:19:34;95577.28;;;4.87;100.00
46638;BME280;32365;46.938;7.390;2023-03-20T03:22:02;95591.19;;;4.93;100.00
46638;BME280;32365;46.938;7.390;2023-03-20T03:24:32;95588.41;;;4.95;100.00
46638;BME280;32365;46.938;7.390;2023-03-20T03:27:01;95590.41;;;4.99;100.00
46638;BME280;32365;46.938;7.390;2023-03-20T03:29:32;95592.97;;;4.99;100.00
46638;BME280;32365;46.938;7.390;2023-03-20T03:32:00;95599.09;;;4.98;100.00
46638;BME280;32365;46.938;7.390;2023-03-20T03:34:28;95603.00;;;4.94;100.00
46638;BME280;32365;46.938;7.390;2023-03-20T03:37:01;95599.69;;;5.00;100.00
46638;BME280;32365;46.938;7.390;2023-03-20T03:39:36;95602.69;;;5.04;100.00
46638;BME280;32365;46.938;7.390;2023-03-20T03:42:13;95604.28;;;5.05;100.00
46638;BME280;32365;46.938;7.390;2023-03-20T03:44:48;95610.69;;;4.94;100.00
46638;BME280;32365;46.938;7.390;2023-03-20T03:47:19;95608.75;;;4.96;100.00
46638;BME280;32365;46.938;7.390;2023-03-20T03:49:49;95609.56;;;4.97;100.00
46638;BME280;32365;46.938;7.390;2023-03-20T03:52:20;95610.28;;;4.90;100.00
46638;BME280;32365;46.938;7.390;2023-03-20T03:54:52;95610.63;;;4.81;100.00
46638;BME280;32365;46.938;7.390;2023-03-20T03:57:25;95613.88;;;4.96;100.00
46638;BME280;32365;46.938;7.390;2023-03-20T03:59:54;95618.53;;;4.86;100.00
46638;BME280;32365;46.938;7.390;2023-03-20T04:02:22;95620.44;;;4.77;100.00
46638;BME280;32365;46.938;7.390;2023-03-20T04:04:51;95618.69;;;4.77;100.00
46638;BME280;32365;46.938;7.390;2023-03-20T04:07:19;95620.69;;;4.82;100.00
46638;BME280;32365;46.938;7.390;2023-03-20T04:09:46;95623.81;;;4.77;100.00
46638;BME280;32365;46.938;7.390;2023-03-20T04:12:31;95624.59;;;4.78;100.00
46638;BME280;32365;46.938;7.390;2023-03-20T04:14:58;95633.72;;;4.87;100.00
46638;BME280;32365;46.938;7.390;2023-03-20T04:17:24;95629.47;;;4.95;100.00
46638;BME280;32365;46.938;7.390;2023-03-20T04:19:51;95634.19;;;4.91;100.00
46638;BME280;32365;46.938;7.390;2023-03-20T04:22:17;95625.38;;;5.00;100.00
46638;BME280;32365;46.938;7.390;2023-03-20T04:24:44;95642.41;;;5.08;100.00
46638;BME280;32365;46.938;7.390;2023-03-20T04:27:10;95631.38;;;5.14;99.91
46638;BME280;32365;46.938;7.390;2023-03-20T04:29:38;95632.88;;;5.02;99.62
46638;BME280;32365;46.938;7.390;2023-03-20T04:32:05;95637.94;;;4.95;100.00
46638;BME280;32365;46.938;7.390;2023-03-20T04:34:32;95630.63;;;4.92;100.00
46638;BME280;32365;46.938;7.390;2023-03-20T04:36:58;95626.03;;;4.87;100.00
46638;BME280;32365;46.938;7.390;2023-03-20T04:39:26;95630.31;;;4.80;100.00
46638;BME280;32365;46.938;7.390;2023-03-20T04:41:52;95630.88;;;4.75;100.00
46638;BME280;32365;46.938;7.390;2023-03-20T04:44:19;95630.75;;;4.84;100.00
46638;BME280;32365;46.938;7.390;2023-03-20T04:46:47;95631.97;;;4.88;100.00
46638;BME280;32365;46.938;7.390;2023-03-20T04:49:14;95623.72;;;4.92;100.00
46638;BME280;32365;46.938;7.390;2023-03-20T04:51:40;95626.28;;;4.92;100.00
46638;BME280;32365;46.938;7.390;2023-03-20T04:54:07;95625.50;;;4.92;100.00
46638;BME280;32365;46.938;7.390;2023-03-20T04:56:33;95628.28;;;4.97;100.00
46638;BME280;32365;46.938;7.390;2023-03-20T04:58:59;95622.59;;;5.02;100.00
46638;BME280;32365;46.938;7.390;2023-03-20T05:01:26;95623.81;;;5.06;100.00
46638;BME280;32365;46.938;7.390;2023-03-20T05:03:54;95621.66;;;5.09;100.00
46638;BME280;32365;46.938;7.390;2023-03-20T05:06:24;95626.59;;;5.04;100.00
46638;BME280;32365;46.938;7.390;2023-03-20T05:08:51;95624.44;;;5.08;100.00
46638;BME280;32365;46.938;7.390;2023-03-20T05:11:18;95623.81;;;5.06;100.00
46638;BME280;32365;46.938;7.390;2023-03-20T05:13:44;95624.91;;;5.18;100.00
46638;BME280;32365;46.938;7.390;2023-03-20T05:16:11;95631.41;;;5.21;100.00
46638;BME280;32365;46.938;7.390;2023-03-20T05:18:37;95630.41;;;5.15;99.87
46638;BME280;32365;46.938;7.390;2023-03-20T05:21:06;95637.88;;;5.10;99.31
46638;BME280;32365;46.938;7.390;2023-03-20T05:23:33;95636.03;;;5.04;99.35
46638;BME280;32365;46.938;7.390;2023-03-20T05:26:00;95639.47;;;5.11;99.32
46638;BME280;32365;46.938;7.390;2023-03-20T05:28:27;95637.16;;;4.95;99.48
46638;BME280;32365;46.938;7.390;2023-03-20T05:30:53;95638.56;;;4.97;99.70
46638;BME280;32365;46.938;7.390;2023-03-20T05:33:20;95633.63;;;4.96;99.87
46638;BME280;32365;46.938;7.390;2023-03-20T05:35:46;95638.50;;;4.90;99.89
46638;BME280;32365;46.938;7.390;2023-03-20T05:38:14;95638.09;;;4.87;100.00
46638;BME280;32365;46.938;7.390;2023-03-20T05:40:41;95627.41;;;4.83;100.00
46638;BME280;32365;46.938;7.390;2023-03-20T05:43:07;95630.59;;;4.85;100.00
46638;BME280;32365;46.938;7.390;2023-03-20T05:45:33;95632.25;;;5.00;100.00
46638;BME280;32365;46.938;7.390;2023-03-20T05:48:00;95628.72;;;5.01;99.81
46638;BME280;32365;46.938;7.390;2023-03-20T05:50:27;95636.56;;;4.92;100.00
46638;BME280;32365;46.938;7.390;2023-03-20T05:52:53;95638.38;;;4.99;100.00
46638;BME280;32365;46.938;7.390;2023-03-20T05:55:21;95637.56;;;4.98;100.00
46638;BME280;32365;46.938;7.390;2023-03-20T05:57:47;95638.25;;;5.07;100.00
46638;BME280;32365;46.938;7.390;2023-03-20T06:00:15;95638.50;;;5.19;100.00
46638;BME280;32365;46.938;7.390;2023-03-20T06:02:42;95629.28;;;5.24;100.00
46638;BME280;32365;46.938;7.390;2023-03-20T06:05:08;95627.63;;;5.10;100.00
46638;BME280;32365;46.938;7.390;2023-03-20T06:07:35;95631.72;;;5.04;100.00
46638;BME280;32365;46.938;7.390;2023-03-20T06:10:01;95639.47;;;5.11;100.00
46638;BME280;32365;46.938;7.390;2023-03-20T06:12:29;95636.34;;;5.16;100.00
46638;BME280;32365;46.938;7.390;2023-03-20T06:14:56;95642.03;;;5.11;100.00
46638;BME280;32365;46.938;7.390;2023-03-20T06:17:22;95638.09;;;5.15;100.00
46638;BME280;32365;46.938;7.390;2023-03-20T06:19:48;95639.94;;;5.21;100.00
46638;BME280;32365;46.938;7.390;2023-03-20T06:22:15;95652.00;;;5.28;100.00
46638;BME280;32365;46.938;7.390;2023-03-20T06:24:42;95654.88;;;5.39;100.00
46638;BME280;32365;46.938;7.390;2023-03-20T06:27:08;95656.44;;;5.41;100.00
46638;BME280;32365;46.938;7.390;2023-03-20T06:29:36;95653.56;;;5.57;100.00
46638;BME280;32365;46.938;7.390;2023-03-20T06:32:05;95658.03;;;5.83;99.52
46638;BME280;32365;46.938;7.390;2023-03-20T06:34:33;95656.09;;;5.85;97.62
46638;BME280;32365;46.938;7.390;2023-03-20T06:37:00;95653.31;;;5.80;96.90
46638;BME280;32365;46.938;7.390;2023-03-20T06:39:26;95651.91;;;5.78;98.25
46638;BME280;32365;46.938;7.390;2023-03-20T06:41:53;95653.19;;;5.95;98.30
46638;BME280;32365;46.938;7.390;2023-03-20T06:44:20;95644.28;;;5.98;97.97
46638;BME280;32365;46.938;7.390;2023-03-20T06:46:48;95641.72;;;5.98;97.33
46638;BME280;32365;46.938;7.390;2023-03-20T06:49:14;95634.47;;;6.08;97.08
46638;BME280;32365;46.938;7.390;2023-03-20T06:51:41;95627.44;;;6.37;95.37
46638;BME280;32365;46.938;7.390;2023-03-20T06:54:07;95627.69;;;6.69;94.55
46638;BME280;32365;46.938;7.390;2023-03-20T06:56:34;95625.91;;;6.63;95.09
46638;BME280;32365;46.938;7.390;2023-03-20T06:59:00;95623.34;;;6.76;94.45
46638;BME280;32365;46.938;7.390;2023-03-20T07:01:27;95628.28;;;6.85;93.38
46638;BME280;32365;46.938;7.390;2023-03-20T07:03:55;95618.22;;;6.90;93.41
46638;BME280;32365;46.938;7.390;2023-03-20T07:06:21;95628.09;;;6.73;93.11
46638;BME280;32365;46.938;7.390;2023-03-20T07:08:48;95627.50;;;6.71;94.29
46638;BME280;32365;46.938;7.390;2023-03-20T07:11:15;95621.94;;;7.14;92.23
46638;BME280;32365;46.938;7.390;2023-03-20T07:13:42;95627.47;;;7.38;90.76
46638;BME280;32365;46.938;7.390;2023-03-20T07:16:09;95626.25;;;7.54;90.37
46638;BME280;32365;46.938;7.390;2023-03-20T07:18:36;95629.59;;;7.61;90.02
46638;BME280;32365;46.938;7.390;2023-03-20T07:21:05;95627.72;;;7.89;89.48
46638;BME280;32365;46.938;7.390;2023-03-20T07:23:32;95634.09;;;8.31;87.75
46638;BME280;32365;46.938;7.390;2023-03-20T07:25:59;95630.63;;;8.51;87.21
46638;BME280;32365;46.938;7.390;2023-03-20T07:28:26;95638.03;;;9.67;82.53
46638;BME280;32365;46.938;7.390;2023-03-20T07:30:53;95637.56;;;11.11;74.39
46638;BME280;32365;46.938;7.390;2023-03-20T07:33:20;95631.59;;;12.23;68.96
46638;BME280;32365;46.938;7.390;2023-03-20T07:35:51;95626.63;;;12.96;65.58
46638;BME280;32365;46.938;7.390;2023-03-20T07:38:19;95633.66;;;13.35;63.00
46638;BME280;32365;46.938;7.390;2023-03-20T07:40:45;95641.97;;;12.52;64.74
46638;BME280;32365;46.938;7.390;2023-03-20T07:43:13;95633.41;;;11.10;69.17
46638;BME280;32365;46.938;7.390;2023-03-20T07:45:39;95635.59;;;9.91;75.05
46638;BME280;32365;46.938;7.390;2023-03-20T07:48:06;95644.06;;;8.92;79.81
46638;BME280;32365;46.938;7.390;2023-03-20T07:50:33;95638.97;;;8.53;80.01
46638;BME280;32365;46.938;7.390;2023-03-20T07:52:59;95640.78;;;8.46;81.31
46638;BME280;32365;46.938;7.390;2023-03-20T07:55:27;95641.53;;;8.53;81.92
46638;BME280;32365;46.938;7.390;2023-03-20T07:57:53;95644.50;;;8.57;82.23
46638;BME280;32365;46.938;7.390;2023-03-20T08:00:20;95637.38;;;8.45;82.06
46638;BME280;32365;46.938;7.390;2023-03-20T08:02:47;95636.75;;;8.57;83.91
46638;BME280;32365;46.938;7.390;2023-03-20T08:05:13;95639.06;;;8.72;80.97
46638;BME280;32365;46.938;7.390;2023-03-20T08:07:40;95645.09;;;8.59;82.75
46638;BME280;32365;46.938;7.390;2023-03-20T08:10:08;95650.94;;;9.05;82.84
46638;BME280;32365;46.938;7.390;2023-03-20T08:12:35;95655.63;;;11.06;72.90
46638;BME280;32365;46.938;7.390;2023-03-20T08:15:02;95663.97;;;11.20;72.00
46638;BME280;32365;46.938;7.390;2023-03-20T08:17:30;95661.78;;;12.41;67.78
46638;BME280;32365;46.938;7.390;2023-03-20T08:19:56;95673.97;;;12.69;67.23
46638;BME280;32365;46.938;7.390;2023-03-20T08:22:23;95662.50;;;15.16;57.59
46638;BME280;32365;46.938;7.390;2023-03-20T08:24:49;95671.09;;;15.49;55.02
46638;BME280;32365;46.938;7.390;2023-03-20T08:27:16;95677.38;;;16.96;50.19
46638;BME280;32365;46.938;7.390;2023-03-20T08:29:44;95675.94;;;18.12;46.78
46638;BME280;32365;46.938;7.390;2023-03-20T08:32:11;95670.22;;;18.00;46.19
46638;BME280;32365;46.938;7.390;2023-03-20T08:34:37;95673.19;;;17.62;48.26
46638;BME280;32365;46.938;7.390;2023-03-20T08:37:04;95675.34;;;18.31;45.74
46638;BME280;32365;46.938;7.390;2023-03-20T08:39:32;95673.72;;;17.49;46.84
46638;BME280;32365;46.938;7.390;2023-03-20T08:42:00;95675.75;;;17.78;46.42
46638;BME280;32365;46.938;7.390;2023-03-20T08:44:26;95680.94;;;15.09;52.54
46638;BME280;32365;46.938;7.390;2023-03-20T08:46:54;95681.53;;;15.49;53.86
46638;BME280;32365;46.938;7.390;2023-03-20T08:49:21;95678.59;;;15.41;51.70
46638;BME280;32365;46.938;7.390;2023-03-20T08:51:47;95671.91;;;17.08;50.46
46638;BME280;32365;46.938;7.390;2023-03-20T08:54:14;95662.19;;;17.45;48.46
46638;BME280;32365;46.938;7.390;2023-03-20T08:56:42;95673.59;;;16.40;48.96
46638;BME280;32365;46.938;7.390;2023-03-20T08:59:09;95671.63;;;17.10;46.43
46638;BME280;32365;46.938;7.390;2023-03-20T09:01:35;95679.97;;;15.91;50.25
46638;BME280;32365;46.938;7.390;2023-03-20T09:04:03;95675.75;;;12.98;56.77
46638;BME280;32365;46.938;7.390;2023-03-20T09:06:30;95670.00;;;13.86;56.68
46638;BME280;32365;46.938;7.390;2023-03-20T09:08:57;95670.38;;;13.21;58.88
46638;BME280;32365;46.938;7.390;2023-03-20T09:11:23;95667.38;;;12.21;60.81
46638;BME280;32365;46.938;7.390;2023-03-20T09:13:50;95683.69;;;11.57;65.60
46638;BME280;32365;46.938;7.390;2023-03-20T09:16:17;95671.16;;;11.65;66.54
46638;BME280;32365;46.938;7.390;2023-03-20T09:18:43;95672.00;;;12.30;64.14
46638;BME280;32365;46.938;7.390;2023-03-20T09:21:11;95675.44;;;13.62;58.39
46638;BME280;32365;46.938;7.390;2023-03-20T09:23:38;95672.84;;;13.45;57.48
46638;BME280;32365;46.938;7.390;2023-03-20T09:26:05;95676.31;;;14.84;56.32
46638;BME280;32365;46.938;7.390;2023-03-20T09:28:31;95681.84;;;17.37;45.74
46638;BME280;32365;46.938;7.390;2023-03-20T09:30:58;95688.06;;;15.95;49.98
46638;BME280;32365;46.938;7.390;2023-03-20T09:33:25;95677.00;;;18.06;45.26
46638;BME280;32365;46.938;7.390;2023-03-20T09:35:52;95667.81;;;19.68;42.01
46638;BME280;32365;46.938;7.390;2023-03-20T09:38:20;95665.78;;;18.00;43.53
46638;BME280;32365;46.938;7.390;2023-03-20T09:40:50;95670.00;;;16.67;45.75
46638;BME280;32365;46.938;7.390;2023-03-20T09:43:25;95670.41;;;16.18;48.53
46638;BME280;32365;46.938;7.390;2023-03-20T09:46:02;95664.56;;;14.10;51.77
46638;BME280;32365;46.938;7.390;2023-03-20T09:48:34;95661.00;;;13.54;54.36
46638;BME280;32365;46.938;7.390;2023-03-20T09:51:10;95664.88;;;13.18;56.32
46638;BME280;32365;46.938;7.390;2023-03-20T09:53:44;95670.75;;;16.47;49.88
46638;BME280;32365;46.938;7.390;2023-03-20T09:56:15;95672.91;;;16.66;46.05
46638;BME280;32365;46.938;7.390;2023-03-20T09:58:44;95660.16;;;18.23;44.29
46638;BME280;32365;46.938;7.390;2023-03-20T10:01:14;95664.59;;;17.10;44.62
46638;BME280;32365;46.938;7.390;2023-03-20T10:03:43;95662.59;;;16.23;48.50
46638;BME280;32365;46.938;7.390;2023-03-20T10:06:14;95670.75;;;14.75;49.67
46638;BME280;32365;46.938;7.390;2023-03-20T10:08:44;95674.34;;;14.97;52.29
46638;BME280;32365;46.938;7.390;2023-03-20T10:11:26;95666.53;;;14.20;51.26
46638;BME280;32365;46.938;7.390;2023-03-20T10:14:05;95676.63;;;17.06;46.58
46638;BME280;32365;46.938;7.390;2023-03-20T10:16:44;95676.66;;;16.11;44.51
46638;BME280;32365;46.938;7.390;2023-03-20T10:19:21;95679.56;;;16.25;46.87
46638;BME280;32365;46.938;7.390;2023-03-20T10:21:50;95679.06;;;18.14;44.22
46638;BME280;32365;46.938;7.390;2023-03-20T10:24:27;95677.97;;;16.19;47.05
46638;BME280;32365;46.938;7.390;2023-03-20T10:26:59;95677.53;;;14.76;52.26
46638;BME280;32365;46.938;7.390;2023-03-20T10:29:36;95679.28;;;13.77;52.37
46638;BME280;32365;46.938;7.390;2023-03-20T10:32:12;95680.91;;;13.44;55.86
46638;BME280;32365;46.938;7.390;2023-03-20T10:34:53;95674.81;;;14.16;52.60
46638;BME280;32365;46.938;7.390;2023-03-20T10:37:29;95681.59;;;17.13;45.64
46638;BME280;32365;46.938;7.390;2023-03-20T10:40:11;95672.88;;;17.74;44.10
46638;BME280;32365;46.938;7.390;2023-03-20T10:42:43;95671.16;;;18.25;41.91
46638;BME280;32365;46.938;7.390;2023-03-20T10:45:21;95673.59;;;20.57;37.78
46638;BME280;32365;46.938;7.390;2023-03-20T10:47:52;95669.34;;;22.07;34.47
46638;BME280;32365;46.938;7.390;2023-03-20T10:50:23;95669.31;;;21.18;34.67
46638;BME280;32365;46.938;7.390;2023-03-20T10:52:55;95673.38;;;21.77;32.70
46638;BME280;32365;46.938;7.390;2023-03-20T10:55:25;95670.66;;;24.23;30.32
46638;BME280;32365;46.938;7.390;2023-03-20T10:57:56;95670.69;;;23.06;31.45
46638;BME280;32365;46.938;7.390;2023-03-20T11:00:25;95669.00;;;18.82;39.50
46638;BME280;32365;46.938;7.390;2023-03-20T11:02:52;95666.56;;;15.39;48.51
46638;BME280;32365;46.938;7.390;2023-03-20T11:05:22;95660.44;;;13.69;51.94
46638;BME280;32365;46.938;7.390;2023-03-20T11:07:51;95653.06;;;13.44;54.63
46638;BME280;32365;46.938;7.390;2023-03-20T11:10:27;95667.06;;;12.75;55.70
46638;BME280;32365;46.938;7.390;2023-03-20T11:12:56;95657.00;;;13.30;54.41
46638;BME280;32365;46.938;7.390;2023-03-20T11:15:24;95657.59;;;14.65;51.48
46638;BME280;32365;46.938;7.390;2023-03-20T11:17:53;95655.91;;;14.04;53.70
46638;BME280;32365;46.938;7.390;2023-03-20T11:20:20;95666.44;;;14.14;53.21
46638;BME280;32365;46.938;7.390;2023-03-20T11:22:47;95660.16;;;14.10;53.21
46638;BME280;32365;46.938;7.390;2023-03-20T11:25:23;95669.19;;;14.25;52.45
46638;BME280;32365;46.938;7.390;2023-03-20T11:27:53;95671.19;;;13.39;52.63
46638;BME280;32365;46.938;7.390;2023-03-20T11:30:20;95669.53;;;12.99;55.21
46638;BME280;32365;46.938;7.390;2023-03-20T11:32:47;95672.03;;;14.23;52.22
46638;BME280;32365;46.938;7.390;2023-03-20T11:35:19;95667.28;;;13.76;52.87
46638;BME280;32365;46.938;7.390;2023-03-20T11:37:49;95663.78;;;13.14;56.03
46638;BME280;32365;46.938;7.390;2023-03-20T11:40:21;95665.53;;;14.48;52.14
46638;BME280;32365;46.938;7.390;2023-03-20T11:42:54;95667.00;;;14.16;51.38
46638;BME280;32365;46.938;7.390;2023-03-20T11:45:21;95665.78;;;14.46;51.07
46638;BME280;32365;46.938;7.390;2023-03-20T11:47:50;95669.91;;;14.20;52.02
46638;BME280;32365;46.938;7.390;2023-03-20T11:50:28;95668.38;;;13.80;52.40
46638;BME280;32365;46.938;7.390;2023-03-20T11:52:56;95672.56;;;13.81;53.80
46638;BME280;32365;46.938;7.390;2023-03-20T11:55:26;95674.78;;;15.59;46.27
46638;BME280;32365;46.938;7.390;2023-03-20T11:57:57;95671.75;;;15.77;43.80
46638;BME280;32365;46.938;7.390;2023-03-20T12:00:27;95670.66;;;15.25;47.44
46638;BME280;32365;46.938;7.390;2023-03-20T12:02:54;95659.75;;;16.29;43.05
46638;BME280;32365;46.938;7.390;2023-03-20T12:05:31;95663.41;;;15.75;45.04
46638;BME280;32365;46.938;7.390;2023-03-20T12:08:00;95661.31;;;16.36;44.20
46638;BME280;32365;46.938;7.390;2023-03-20T12:10:32;95661.94;;;16.89;40.56
46638;BME280;32365;46.938;7.390;2023-03-20T12:13:05;95652.00;;;18.35;38.38
46638;BME280;32365;46.938;7.390;2023-03-20T12:15:39;95657.91;;;20.33;35.56
46638;BME280;32365;46.938;7.390;2023-03-20T12:18:10;95654.34;;;21.94;30.72
46638;BME280;32365;46.938;7.390;2023-03-20T12:20:44;95636.78;;;22.40;30.00
46638;BME280;32365;46.938;7.390;2023-03-20T12:23:14;95643.00;;;20.85;32.81
46638;BME280;32365;46.938;7.390;2023-03-20T12:25:50;95634.09;;;21.14;31.49
46638;BME280;32365;46.938;7.390;2023-03-20T12:28:23;95634.78;;;19.03;36.85
46638;BME280;32365;46.938;7.390;2023-03-20T12:31:03;95629.50;;;21.06;32.73
46638;BME280;32365;46.938;7.390;2023-03-20T12:33:38;95626.78;;;21.72;30.89
46638;BME280;32365;46.938;7.390;2023-03-20T12:36:12;95619.09;;;19.27;37.03
46638;BME280;32365;46.938;7.390;2023-03-20T12:38:39;95619.25;;;18.32;39.73
46638;BME280;32365;46.938;7.390;2023-03-20T12:41:10;95614.09;;;16.99;42.35
46638;BME280;32365;46.938;7.390;2023-03-20T12:43:46;95612.44;;;16.26;43.63
46638;BME280;32365;46.938;7.390;2023-03-20T12:46:24;95612.53;;;16.93;40.99
46638;BME280;32365;46.938;7.390;2023-03-20T12:48:55;95609.56;;;15.64;43.60
46638;BME280;32365;46.938;7.390;2023-03-20T12:51:33;95612.72;;;15.66;45.27
46638;BME280;32365;46.938;7.390;2023-03-20T12:54:11;95612.06;;;15.38;46.48
46638;BME280;32365;46.938;7.390;2023-03-20T12:56:55;95609.81;;;15.62;43.87
46638;BME280;32365;46.938;7.390;2023-03-20T12:59:34;95610.13;;;14.85;47.64
46638;BME280;32365;46.938;7.390;2023-03-20T13:02:17;95613.03;;;14.61;45.65
46638;BME280;32365;46.938;7.390;2023-03-20T13:04:58;95604.69;;;14.92;46.18
46638;BME280;32365;46.938;7.390;2023-03-20T13:07:40;95601.88;;;13.67;48.46
46638;BME280;32365;46.938;7.390;2023-03-20T13:10:18;95610.78;;;12.98;52.44
46638;BME280;32365;46.938;7.390;2023-03-20T13:12:52;95596.91;;;12.58;52.74
46638;BME280;32365;46.938;7.390;2023-03-20T13:15:33;95596.88;;;13.43;50.73
46638;BME280;32365;46.938;7.390;2023-03-20T13:18:07;95590.34;;;13.23;51.24
46638;BME280;32365;46.938;7.390;2023-03-20T13:20:41;95587.13;;;12.99;51.03
46638;BME280;32365;46.938;7.390;2023-03-20T13:23:19;95584.63;;;13.61;50.02